Axis, Alabama
Current Conditions -  °F | °C
As of 2:53 AM on Wednesday 22 Oct 2014 (Local Time) from KBFM Reporting Station
Clear Clear  
Wind Chill: 56°   Ceiling: Unl
Heat Index: 56°   Visibility: 10mi
Dew Point: 55°   Wind: 6mph
Humidity: 97%   Direction: 330°NNW
Pressure: 30.04"   Gusts: NA
Location:  30.93°N, 88.03°W
Report Text: KBFM 220753Z AUTO 33005KT 10SM CLR 13/13 A3004 RMK AO2 SLP171 T01330128
Loading
Personal Weather Stations






























Interactive Weather Map
Tropical Storm Tracking
New forecast layout! Learn more

10-Day Weather Forecast

Advertisements
Track Severe Weather on mobile